Time;durP1;ratioP1;P1;durP2;ratioP2;P2;SDS_P1;SDS_P2;PMS_P1;PMS_P2;Temp;Humidity;BMP_temperature;BMP_pressure;BME280_temperature;BME280_humidity;BME280_pressure;Samples;Min_cycle;Max_cycle;Signal;HPM_P1;HPM_P2
2022/01/01 00:02:21;;;;;;;10.60;5.88;;;;;;;;;;5090717;28;20052;-73
2022/01/01 00:04:47;;;;;;;9.48;6.03;;;;;;;;;;5089085;28;20032;-73
2022/01/01 00:07:14;;;;;;;9.93;6.55;;;;;;;;;;5089807;28;20051;-74
2022/01/01 00:09:41;;;;;;;9.38;6.25;;;;;;;;;;5089045;28;20048;-73
2022/01/01 00:12:07;;;;;;;9.20;5.63;;;;;;;;;;5089324;28;20474;-74
2022/01/01 00:14:34;;;;;;;10.07;6.18;;;;;;;;;;5090166;28;20089;-73
2022/01/01 00:17:00;;;;;;;10.25;5.78;;;;;;;;;;5088851;28;20060;-75
2022/01/01 00:19:26;;;;;;;9.82;5.45;;;;;;;;;;5089873;28;20441;-75
2022/01/01 00:21:52;;;;;;;8.30;5.55;;;;;;;;;;5090164;28;20141;-75
2022/01/01 00:24:18;;;;;;;9.70;5.97;;;;;;;;;;5090042;28;20040;-72
2022/01/01 00:26:44;;;;;;;8.82;5.68;;;;;;;;;;5089600;28;20040;-73
2022/01/01 00:29:11;;;;;;;8.90;5.65;;;;;;;;;;5090420;28;20051;-73
2022/01/01 00:31:37;;;;;;;10.00;6.15;;;;;;;;;;5088717;28;20086;-73
2022/01/01 00:34:03;;;;;;;10.30;5.88;;;;;;;;;;5088642;28;20067;-73
2022/01/01 00:36:31;;;;;;;8.63;5.93;;;;;;;;;;5089910;28;20040;-74
2022/01/01 00:38:57;;;;;;;7.88;5.50;;;;;;;;;;5088208;28;20455;-74
2022/01/01 00:41:23;;;;;;;9.30;5.35;;;;;;;;;;5089264;28;20514;-73
2022/01/01 00:43:49;;;;;;;9.93;5.80;;;;;;;;;;5089669;28;20074;-73
2022/01/01 00:46:15;;;;;;;8.57;5.80;;;;;;;;;;5088829;28;20051;-73
2022/01/01 00:48:41;;;;;;;10.55;5.63;;;;;;;;;;5089255;28;20520;-73
2022/01/01 00:51:07;;;;;;;10.55;6.13;;;;;;;;;;5089533;28;20472;-72
2022/01/01 00:53:33;;;;;;;10.90;5.80;;;;;;;;;;5089362;28;20048;-72
2022/01/01 00:56:00;;;;;;;10.23;5.90;;;;;;;;;;5087936;28;20083;-73
2022/01/01 00:58:26;;;;;;;8.40;5.72;;;;;;;;;;5089505;28;20047;-72
2022/01/01 01:00:52;;;;;;;13.10;6.43;;;;;;;;;;5089728;28;20048;-72
2022/01/01 01:03:18;;;;;;;9.38;6.00;;;;;;;;;;5089636;28;20079;-72
2022/01/01 01:05:45;;;;;;;9.40;6.03;;;;;;;;;;5071388;28;20048;-72
2022/01/01 01:08:12;;;;;;;9.95;5.90;;;;;;;;;;5089107;28;20040;-73
2022/01/01 01:10:39;;;;;;;8.13;5.28;;;;;;;;;;5089429;28;20090;-72
2022/01/01 01:13:05;;;;;;;10.38;5.78;;;;;;;;;;5088932;28;20548;-73
2022/01/01 01:15:34;;;;;;;9.15;5.78;;;;;;;;;;5089631;28;20048;-73
2022/01/01 01:18:01;;;;;;;11.13;5.60;;;;;;;;;;5089541;28;20055;-73
2022/01/01 01:20:28;;;;;;;8.07;5.32;;;;;;;;;;5088698;28;20076;-73
2022/01/01 01:22:54;;;;;;;9.55;5.80;;;;;;;;;;5089204;28;20422;-73
2022/01/01 01:25:22;;;;;;;8.35;5.50;;;;;;;;;;5089226;28;20469;-73
2022/01/01 01:27:50;;;;;;;9.05;5.50;;;;;;;;;;5087963;28;20135;-73
2022/01/01 01:30:16;;;;;;;9.60;5.85;;;;;;;;;;5089088;28;20052;-72
2022/01/01 01:32:43;;;;;;;10.00;5.57;;;;;;;;;;5088829;28;20080;-72
2022/01/01 01:35:10;;;;;;;8.13;5.20;;;;;;;;;;5089234;28;20048;-72
2022/01/01 01:37:36;;;;;;;8.25;5.70;;;;;;;;;;5089342;28;20097;-72
2022/01/01 01:40:03;;;;;;;9.00;6.05;;;;;;;;;;5087854;28;20048;-72
2022/01/01 01:42:30;;;;;;;9.18;5.90;;;;;;;;;;5088989;28;20391;-72
2022/01/01 01:44:57;;;;;;;10.68;5.80;;;;;;;;;;5089068;28;20422;-72
2022/01/01 01:47:36;;;;;;;8.02;5.35;;;;;;;;;;5088458;28;20090;-72
2022/01/01 01:50:04;;;;;;;9.57;5.88;;;;;;;;;;5088566;28;20048;-72
2022/01/01 01:52:33;;;;;;;6.97;5.05;;;;;;;;;;5091482;28;20123;-72
2022/01/01 01:55:00;;;;;;;7.70;5.28;;;;;;;;;;5092216;28;20052;-72
2022/01/01 01:57:27;;;;;;;8.57;5.88;;;;;;;;;;5091283;28;20404;-75
2022/01/01 01:59:53;;;;;;;8.25;5.55;;;;;;;;;;5091108;28;20056;-75
2022/01/01 02:02:19;;;;;;;10.68;6.55;;;;;;;;;;5093095;28;20052;-76
2022/01/01 02:04:45;;;;;;;13.15;6.88;;;;;;;;;;5092664;28;20509;-75
2022/01/01 02:07:12;;;;;;;11.00;6.93;;;;;;;;;;5092795;28;20044;-75
2022/01/01 02:09:39;;;;;;;11.13;6.97;;;;;;;;;;5090778;28;20048;-73
2022/01/01 02:12:06;;;;;;;11.82;6.70;;;;;;;;;;5092515;28;20056;-73
2022/01/01 02:15:05;;;;;;;10.10;6.10;;;;;;;;;;5092643;28;20113;-73
2022/01/01 02:17:31;;;;;;;11.65;6.80;;;;;;;;;;5092345;28;20059;-73
2022/01/01 02:20:03;;;;;;;12.07;6.75;;;;;;;;;;5090894;28;20044;-73
2022/01/01 02:22:46;;;;;;;12.00;6.53;;;;;;;;;;5092440;28;20044;-73
2022/01/01 02:25:12;;;;;;;10.30;6.60;;;;;;;;;;5092614;28;20044;-73
2022/01/01 02:27:39;;;;;;;10.90;6.57;;;;;;;;;;5073694;28;20048;-73
2022/01/01 02:30:09;;;;;;;10.50;6.93;;;;;;;;;;5092159;28;20560;-72
2022/01/01 02:32:36;;;;;;;9.65;6.93;;;;;;;;;;5092331;28;20044;-73
2022/01/01 02:35:02;;;;;;;10.27;6.13;;;;;;;;;;5091731;28;20048;-74
2022/01/01 02:37:28;;;;;;;9.98;6.47;;;;;;;;;;5091733;28;20429;-74
2022/01/01 02:39:54;;;;;;;14.65;6.93;;;;;;;;;;5090940;28;20058;-74
2022/01/01 02:42:22;;;;;;;14.60;6.65;;;;;;;;;;5074300;28;20048;-74
2022/01/01 02:44:50;;;;;;;9.55;6.15;;;;;;;;;;5092045;28;20055;-74
2022/01/01 02:47:16;;;;;;;12.82;7.03;;;;;;;;;;5091617;28;20508;-74
2022/01/01 02:49:42;;;;;;;9.25;6.15;;;;;;;;;;5091691;28;20076;-73
2022/01/01 02:52:09;;;;;;;10.82;6.40;;;;;;;;;;5091729;28;20500;-73
2022/01/01 02:54:35;;;;;;;9.93;6.43;;;;;;;;;;5091204;28;20048;-73
2022/01/01 02:57:01;;;;;;;11.38;6.32;;;;;;;;;;5090579;28;20052;-73
2022/01/01 02:59:27;;;;;;;10.07;6.28;;;;;;;;;;5092044;28;20059;-73
2022/01/01 03:01:53;;;;;;;9.90;6.57;;;;;;;;;;5091838;28;20490;-73
2022/01/01 03:04:19;;;;;;;10.48;5.85;;;;;;;;;;5091382;28;20097;-73
2022/01/01 03:06:52;;;;;;;11.18;6.93;;;;;;;;;;5091007;28;20047;-73
2022/01/01 03:09:18;;;;;;;8.98;6.07;;;;;;;;;;5091543;28;20102;-73
2022/01/01 03:11:45;;;;;;;9.40;6.43;;;;;;;;;;5091268;28;20104;-73
2022/01/01 03:14:17;;;;;;;12.27;6.78;;;;;;;;;;5091607;28;20056;-73
2022/01/01 03:16:43;;;;;;;11.20;6.35;;;;;;;;;;5091359;28;20389;-73
2022/01/01 03:19:09;;;;;;;9.57;6.05;;;;;;;;;;5091160;28;20044;-73
2022/01/01 03:21:35;;;;;;;11.77;6.22;;;;;;;;;;5091372;28;20470;-73
2022/01/01 03:24:01;;;;;;;9.98;6.45;;;;;;;;;;5091488;28;20137;-73
2022/01/01 03:26:27;;;;;;;11.48;6.68;;;;;;;;;;5091287;28;20079;-73
2022/01/01 03:28:53;;;;;;;9.23;6.60;;;;;;;;;;5091068;28;20044;-74
2022/01/01 03:31:19;;;;;;;9.00;6.20;;;;;;;;;;5090855;28;20550;-73
2022/01/01 03:33:45;;;;;;;9.55;6.72;;;;;;;;;;5090664;28;20044;-74
2022/01/01 03:36:11;;;;;;;8.63;6.47;;;;;;;;;;5091349;28;20040;-74
2022/01/01 03:38:37;;;;;;;9.40;6.30;;;;;;;;;;5091213;28;20052;-74
2022/01/01 03:41:03;;;;;;;8.82;6.32;;;;;;;;;;5090751;28;20093;-74
2022/01/01 03:43:29;;;;;;;10.15;6.30;;;;;;;;;;5089951;28;20048;-74
2022/01/01 03:45:55;;;;;;;10.02;6.40;;;;;;;;;;5091356;28;20446;-74
2022/01/01 03:48:21;;;;;;;9.38;6.10;;;;;;;;;;5089355;28;20135;-74
2022/01/01 03:50:47;;;;;;;9.18;6.10;;;;;;;;;;5089885;28;20051;-73
2022/01/01 03:53:13;;;;;;;8.07;5.85;;;;;;;;;;5089295;28;20044;-76
2022/01/01 03:55:39;;;;;;;11.40;6.75;;;;;;;;;;5089944;28;20418;-75
2022/01/01 03:58:05;;;;;;;10.93;7.32;;;;;;;;;;5071626;28;20079;-75
2022/01/01 04:00:32;;;;;;;16.27;7.50;;;;;;;;;;5090260;28;20051;-75
2022/01/01 04:03:11;;;;;;;16.20;7.30;;;;;;;;;;5089823;28;20067;-74
2022/01/01 04:05:37;;;;;;;;;;;;;;;;;;5090367;28;20055;-72
2022/01/01 04:08:03;;;;;;;12.77;7.53;;;;;;;;;;5089355;28;19923;-72
2022/01/01 04:10:31;;;;;;;12.35;7.20;;;;;;;;;;5089507;28;20486;-73
2022/01/01 04:12:58;;;;;;;14.82;7.88;;;;;;;;;;5089677;28;20127;-73
2022/01/01 04:15:24;;;;;;;10.90;7.05;;;;;;;;;;5089504;28;20127;-73
2022/01/01 04:17:50;;;;;;;11.25;7.20;;;;;;;;;;5090386;28;20418;-73
2022/01/01 04:20:16;;;;;;;12.80;7.28;;;;;;;;;;5090007;28;20099;-73
2022/01/01 04:22:42;;;;;;;12.13;7.72;;;;;;;;;;5089367;28;20036;-74
2022/01/01 04:25:08;;;;;;;14.10;7.13;;;;;;;;;;5090286;28;20040;-73
2022/01/01 04:27:34;;;;;;;11.85;7.25;;;;;;;;;;5090117;28;20047;-74
2022/01/01 04:30:00;;;;;;;11.13;7.30;;;;;;;;;;5089967;28;20048;-73
2022/01/01 04:32:26;;;;;;;13.60;6.95;;;;;;;;;;5089516;28;20089;-76
2022/01/01 04:34:52;;;;;;;13.20;7.80;;;;;;;;;;5089911;28;20653;-76
2022/01/01 04:37:20;;;;;;;15.25;8.00;;;;;;;;;;5089691;28;20040;-75
2022/01/01 04:39:47;;;;;;;14.65;7.45;;;;;;;;;;5089877;28;20102;-75
2022/01/01 04:42:13;;;;;;;14.25;7.70;;;;;;;;;;5089702;28;20055;-74
2022/01/01 04:44:39;;;;;;;10.77;7.93;;;;;;;;;;5090054;28;20454;-73
2022/01/01 04:47:06;;;;;;;13.98;7.90;;;;;;;;;;5089798;28;20632;-74
2022/01/01 04:49:32;;;;;;;14.38;7.35;;;;;;;;;;5088545;28;20131;-74
2022/01/01 04:51:58;;;;;;;13.25;8.10;;;;;;;;;;5089400;28;20055;-74
2022/01/01 04:54:24;;;;;;;12.60;7.22;;;;;;;;;;5089777;28;20513;-74
2022/01/01 04:56:50;;;;;;;12.30;7.43;;;;;;;;;;5089240;28;20561;-73
2022/01/01 04:59:16;;;;;;;14.45;8.25;;;;;;;;;;5089442;28;20425;-74
2022/01/01 05:01:43;;;;;;;13.45;8.30;;;;;;;;;;5088666;28;20051;-74
2022/01/01 05:04:10;;;;;;;11.57;7.60;;;;;;;;;;5089542;28;20040;-73
2022/01/01 05:06:36;;;;;;;10.88;7.22;;;;;;;;;;5089274;28;20048;-74
2022/01/01 05:09:02;;;;;;;14.68;8.52;;;;;;;;;;5089454;28;20413;-74
2022/01/01 05:11:28;;;;;;;13.85;7.90;;;;;;;;;;5089173;28;20044;-73
2022/01/01 05:13:55;;;;;;;11.50;7.63;;;;;;;;;;5089377;28;20591;-74
2022/01/01 05:16:21;;;;;;;13.82;7.60;;;;;;;;;;5089848;28;20133;-74
2022/01/01 05:18:47;;;;;;;12.52;7.68;;;;;;;;;;5089591;28;20048;-74
2022/01/01 05:21:13;;;;;;;11.73;6.95;;;;;;;;;;5089274;28;20589;-74
2022/01/01 05:23:39;;;;;;;10.68;6.85;;;;;;;;;;5088571;28;20125;-74
2022/01/01 05:26:05;;;;;;;15.90;8.05;;;;;;;;;;5090193;28;20118;-75
2022/01/01 05:28:31;;;;;;;12.40;7.72;;;;;;;;;;5093559;28;20044;-75
2022/01/01 05:30:58;;;;;;;11.30;7.05;;;;;;;;;;5093211;28;20050;-75
2022/01/01 05:33:24;;;;;;;10.38;7.00;;;;;;;;;;5093246;28;20142;-75
2022/01/01 05:35:50;;;;;;;10.25;7.07;;;;;;;;;;5093350;28;20446;-75
2022/01/01 05:38:17;;;;;;;12.25;7.20;;;;;;;;;;5093455;28;20452;-75
2022/01/01 05:40:43;;;;;;;12.15;7.60;;;;;;;;;;5093011;28;20055;-76
2022/01/01 05:43:13;;;;;;;11.40;7.13;;;;;;;;;;5092755;28;20044;-76
2022/01/01 05:45:42;;;;;;;12.20;7.20;;;;;;;;;;5092027;28;20054;-75
2022/01/01 05:48:08;;;;;;;11.53;6.70;;;;;;;;;;5093323;28;20117;-75
2022/01/01 05:50:35;;;;;;;12.18;7.40;;;;;;;;;;5092937;28;20427;-75
2022/01/01 05:53:02;;;;;;;11.88;6.97;;;;;;;;;;5092191;28;20052;-75
2022/01/01 05:55:28;;;;;;;11.00;7.28;;;;;;;;;;5092060;28;20101;-75
2022/01/01 05:57:54;;;;;;;11.50;6.85;;;;;;;;;;5092923;28;20036;-75
2022/01/01 06:00:20;;;;;;;10.45;6.55;;;;;;;;;;5092580;28;20040;-75
2022/01/01 06:02:46;;;;;;;10.95;6.90;;;;;;;;;;5092951;28;20040;-75
2022/01/01 06:05:12;;;;;;;10.32;6.82;;;;;;;;;;5091636;28;20059;-75
2022/01/01 06:07:38;;;;;;;10.55;7.05;;;;;;;;;;5092921;28;20093;-75
2022/01/01 06:10:05;;;;;;;11.10;7.18;;;;;;;;;;5092585;28;20075;-75
2022/01/01 06:12:31;;;;;;;11.80;6.95;;;;;;;;;;5092433;28;20071;-75
2022/01/01 06:14:57;;;;;;;9.30;6.68;;;;;;;;;;5092087;28;20051;-75
2022/01/01 06:17:23;;;;;;;12.05;7.57;;;;;;;;;;5092599;28;20055;-75
2022/01/01 06:19:49;;;;;;;9.77;6.95;;;;;;;;;;5092345;28;20056;-74
2022/01/01 06:22:16;;;;;;;11.82;6.82;;;;;;;;;;5092703;28;20515;-75
2022/01/01 06:24:42;;;;;;;10.88;6.95;;;;;;;;;;5090858;28;20119;-75
2022/01/01 06:27:08;;;;;;;10.65;6.93;;;;;;;;;;5092475;28;20047;-74
2022/01/01 06:29:34;;;;;;;10.38;6.90;;;;;;;;;;5092085;28;20040;-75
2022/01/01 06:32:00;;;;;;;9.38;6.43;;;;;;;;;;5092383;28;20044;-76
2022/01/01 06:34:26;;;;;;;9.90;6.93;;;;;;;;;;5091941;28;20051;-76
2022/01/01 06:36:52;;;;;;;10.40;6.97;;;;;;;;;;5092067;28;20048;-76
2022/01/01 06:39:18;;;;;;;11.27;7.05;;;;;;;;;;5091601;28;20149;-76
2022/01/01 06:41:44;;;;;;;10.27;7.07;;;;;;;;;;5091669;28;20105;-76
2022/01/01 06:44:10;;;;;;;9.55;6.85;;;;;;;;;;5092095;28;20598;-76
2022/01/01 06:46:36;;;;;;;12.27;7.13;;;;;;;;;;5091892;28;20055;-75
2022/01/01 06:49:04;;;;;;;10.88;6.57;;;;;;;;;;5091947;28;20048;-76
2022/01/01 06:51:32;;;;;;;10.93;6.90;;;;;;;;;;5092033;28;20048;-76
2022/01/01 06:53:58;;;;;;;11.75;7.40;;;;;;;;;;5091996;28;20059;-77
2022/01/01 06:56:24;;;;;;;11.00;7.00;;;;;;;;;;5090505;28;20048;-76
2022/01/01 06:58:50;;;;;;;10.32;7.07;;;;;;;;;;5091699;28;20516;-76
2022/01/01 07:01:16;;;;;;;11.35;6.60;;;;;;;;;;5091907;28;20036;-75
2022/01/01 07:03:42;;;;;;;10.80;6.88;;;;;;;;;;5090574;28;20464;-74
2022/01/01 07:06:08;;;;;;;9.02;6.72;;;;;;;;;;5091574;28;20036;-74
2022/01/01 07:08:34;;;;;;;10.82;6.78;;;;;;;;;;5091520;28;20101;-75
2022/01/01 07:11:00;;;;;;;10.48;6.85;;;;;;;;;;5091682;28;20490;-76
2022/01/01 07:13:26;;;;;;;11.98;6.85;;;;;;;;;;5089970;28;20082;-75
2022/01/01 07:15:52;;;;;;;13.68;7.15;;;;;;;;;;5091324;28;20528;-75
2022/01/01 07:18:18;;;;;;;8.65;5.78;;;;;;;;;;5090625;28;20446;-76
2022/01/01 07:20:44;;;;;;;10.20;6.65;;;;;;;;;;5090719;28;20051;-75
2022/01/01 07:23:11;;;;;;;9.68;6.53;;;;;;;;;;5091300;28;20079;-77
2022/01/01 07:25:37;;;;;;;9.18;6.03;;;;;;;;;;5091644;28;20258;-76
2022/01/01 07:28:03;;;;;;;9.73;6.13;;;;;;;;;;5091376;28;20122;-77
2022/01/01 07:30:30;;;;;;;9.10;6.20;;;;;;;;;;5089600;28;20108;-76
2022/01/01 07:32:56;;;;;;;9.02;5.97;;;;;;;;;;5091072;28;20101;-74
2022/01/01 07:35:22;;;;;;;9.95;6.70;;;;;;;;;;5091083;28;20073;-74
2022/01/01 07:37:49;;;;;;;9.68;5.90;;;;;;;;;;5090921;28;20040;-75
2022/01/01 07:40:16;;;;;;;8.85;6.45;;;;;;;;;;5086720;28;20044;-75
2022/01/01 07:42:42;;;;;;;9.70;6.40;;;;;;;;;;5089330;28;20051;-75
2022/01/01 07:45:09;;;;;;;9.88;6.40;;;;;;;;;;5090902;28;20092;-75
2022/01/01 07:47:35;;;;;;;8.40;6.00;;;;;;;;;;5091175;28;20226;-75
2022/01/01 07:50:01;;;;;;;9.75;6.75;;;;;;;;;;5090350;28;20512;-75
2022/01/01 07:52:27;;;;;;;10.68;6.07;;;;;;;;;;5091193;28;20067;-75
2022/01/01 07:54:53;;;;;;;9.35;5.90;;;;;;;;;;5090870;28;20515;-75
2022/01/01 07:57:19;;;;;;;8.40;6.18;;;;;;;;;;5089108;28;20486;-74
2022/01/01 07:59:45;;;;;;;8.57;5.93;;;;;;;;;;5089673;28;20078;-75
2022/01/01 08:02:11;;;;;;;9.75;6.35;;;;;;;;;;5090937;28;20421;-74
2022/01/01 08:04:37;;;;;;;9.35;6.22;;;;;;;;;;5090832;28;20040;-75
2022/01/01 08:07:03;;;;;;;8.50;6.15;;;;;;;;;;5089701;28;20047;-75
2022/01/01 08:09:29;;;;;;;7.55;5.35;;;;;;;;;;5090329;28;20257;-75
2022/01/01 08:11:55;;;;;;;6.97;5.55;;;;;;;;;;5090260;28;20060;-74
2022/01/01 08:14:22;;;;;;;14.00;5.70;;;;;;;;;;5090736;28;20050;-75
2022/01/01 08:16:54;;;;;;;9.57;6.35;;;;;;;;;;5089720;28;20409;-75
2022/01/01 08:19:20;;;;;;;15.90;6.32;;;;;;;;;;5090521;28;20419;-76
2022/01/01 08:21:46;;;;;;;9.25;6.35;;;;;;;;;;5090209;28;20044;-73
2022/01/01 08:24:12;;;;;;;10.35;5.80;;;;;;;;;;5090013;28;20135;-77
2022/01/01 08:26:38;;;;;;;10.43;6.07;;;;;;;;;;5090090;28;20135;-74
2022/01/01 08:29:04;;;;;;;11.32;6.13;;;;;;;;;;5088560;28;20654;-75
2022/01/01 08:31:30;;;;;;;9.38;6.18;;;;;;;;;;5089801;28;20426;-75
2022/01/01 08:33:56;;;;;;;14.05;6.00;;;;;;;;;;5088719;28;20048;-75
2022/01/01 08:36:22;;;;;;;8.52;5.40;;;;;;;;;;5090199;28;20078;-74
2022/01/01 08:38:49;;;;;;;8.82;6.13;;;;;;;;;;5089842;28;20048;-73
2022/01/01 08:41:15;;;;;;;9.32;5.63;;;;;;;;;;5088222;28;20044;-74
2022/01/01 08:43:41;;;;;;;9.25;5.65;;;;;;;;;;5089903;28;20043;-74
2022/01/01 08:46:07;;;;;;;10.45;5.50;;;;;;;;;;5089585;28;20040;-73
2022/01/01 08:48:33;;;;;;;10.30;5.47;;;;;;;;;;5089591;28;20134;-74
2022/01/01 08:50:59;;;;;;;8.82;5.60;;;;;;;;;;5089103;28;20048;-73
2022/01/01 08:53:25;;;;;;;10.43;6.05;;;;;;;;;;5089983;28;20469;-73
2022/01/01 08:55:52;;;;;;;8.90;5.30;;;;;;;;;;5089544;28;20101;-74
2022/01/01 08:58:18;;;;;;;9.40;5.10;;;;;;;;;;5088852;28;20055;-74
2022/01/01 09:00:45;;;;;;;8.15;5.22;;;;;;;;;;5089478;28;20040;-73
2022/01/01 09:03:11;;;;;;;8.65;5.72;;;;;;;;;;5089223;28;20040;-75
2022/01/01 09:05:37;;;;;;;9.75;6.05;;;;;;;;;;5090094;28;20036;-74
2022/01/01 09:08:03;;;;;;;9.95;5.97;;;;;;;;;;5089756;28;20142;-73
2022/01/01 09:10:29;;;;;;;8.32;5.50;;;;;;;;;;5088808;28;20330;-72
2022/01/01 09:12:55;;;;;;;7.97;5.40;;;;;;;;;;5089235;28;20075;-72
2022/01/01 09:15:21;;;;;;;8.63;5.63;;;;;;;;;;5089936;28;20627;-73
2022/01/01 09:17:47;;;;;;;9.18;6.30;;;;;;;;;;5089561;28;20044;-73
2022/01/01 09:20:13;;;;;;;8.23;5.38;;;;;;;;;;5089473;28;20044;-73
2022/01/01 09:22:39;;;;;;;8.45;5.43;;;;;;;;;;5089603;28;20052;-73
2022/01/01 09:25:05;;;;;;;8.98;5.90;;;;;;;;;;5087964;28;20054;-73
2022/01/01 09:27:31;;;;;;;9.85;5.57;;;;;;;;;;5071019;28;20048;-73
2022/01/01 09:29:58;;;;;;;8.18;5.47;;;;;;;;;;5089604;28;20059;-74
2022/01/01 09:32:23;;;;;;;10.73;5.28;;;;;;;;;;5089587;28;20052;-77
2022/01/01 09:34:50;;;;;;;9.02;5.93;;;;;;;;;;5088955;28;20422;-75
2022/01/01 09:37:16;;;;;;;10.73;5.63;;;;;;;;;;5089050;28;20044;-75
2022/01/01 09:39:42;;;;;;;9.63;6.13;;;;;;;;;;5089438;28;20052;-76
2022/01/01 09:42:11;;;;;;;9.35;6.25;;;;;;;;;;5071510;28;20066;-75
2022/01/01 09:44:38;;;;;;;10.15;5.97;;;;;;;;;;5088195;28;20083;-74
2022/01/01 09:47:04;;;;;;;10.00;6.22;;;;;;;;;;5087394;28;20044;-74
2022/01/01 09:49:30;;;;;;;11.25;6.45;;;;;;;;;;5088872;28;20089;-75
2022/01/01 09:51:56;;;;;;;9.23;5.68;;;;;;;;;;5070307;28;20498;-76
2022/01/01 09:54:22;;;;;;;8.90;6.10;;;;;;;;;;5069612;28;20044;-77
2022/01/01 09:56:48;;;;;;;9.35;5.85;;;;;;;;;;5087639;28;20039;-74
2022/01/01 09:59:14;;;;;;;11.75;6.63;;;;;;;;;;5088438;28;20048;-75
2022/01/01 10:01:40;;;;;;;10.63;6.05;;;;;;;;;;5088842;28;20055;-75
2022/01/01 10:04:14;;;;;;;10.75;6.25;;;;;;;;;;5087417;28;20044;-74
2022/01/01 10:06:40;;;;;;;9.82;6.28;;;;;;;;;;5088181;28;20048;-75
2022/01/01 10:09:09;;;;;;;9.90;6.18;;;;;;;;;;5089377;28;20075;-76
2022/01/01 10:11:35;;;;;;;10.07;6.28;;;;;;;;;;5087532;28;20052;-76
2022/01/01 10:14:07;;;;;;;9.05;6.28;;;;;;;;;;5091360;28;20166;-76
2022/01/01 10:16:44;;;;;;;10.80;6.50;;;;;;;;;;5092378;28;20039;-75
2022/01/01 10:19:10;;;;;;;10.95;6.25;;;;;;;;;;5091277;28;20048;-76
2022/01/01 10:21:40;;;;;;;10.00;6.40;;;;;;;;;;5092589;28;20040;-75
2022/01/01 10:24:12;;;;;;;9.88;6.20;;;;;;;;;;5087126;28;20118;-75
2022/01/01 10:29:31;;;;;;;11.63;6.82;;;;;;;;;;5091680;28;20447;-75
2022/01/01 10:32:01;;;;;;;9.52;5.97;;;;;;;;;;5091366;28;20048;-74
2022/01/01 10:34:29;;;;;;;9.13;6.03;;;;;;;;;;5091810;28;20039;-74
2022/01/01 10:36:55;;;;;;;9.00;5.75;;;;;;;;;;5091774;28;20044;-76
2022/01/01 10:39:21;;;;;;;11.38;5.95;;;;;;;;;;5091217;28;20047;-77
2022/01/01 10:42:08;;;;;;;9.75;6.68;;;;;;;;;;5091705;28;20389;-75
2022/01/01 10:44:37;;;;;;;9.90;6.35;;;;;;;;;;5091745;28;20464;-74
2022/01/01 10:47:07;;;;;;;10.15;6.75;;;;;;;;;;5091887;28;20076;-74
2022/01/01 10:52:18;;;;;;;9.90;6.13;;;;;;;;;;5079801;28;20040;-75
2022/01/01 10:54:48;;;;;;;9.93;6.20;;;;;;;;;;5090480;28;20518;-75
2022/01/01 10:57:14;;;;;;;8.20;5.70;;;;;;;;;;5091737;28;20043;-75
2022/01/01 10:59:40;;;;;;;10.52;6.07;;;;;;;;;;5090341;28;20132;-75
2022/01/01 11:02:07;;;;;;;9.18;5.88;;;;;;;;;;5091212;28;20477;-76
2022/01/01 11:04:37;;;;;;;10.32;6.18;;;;;;;;;;5091379;28;20405;-76
2022/01/01 11:07:03;;;;;;;8.65;5.50;;;;;;;;;;5089991;28;20406;-75
2022/01/01 11:09:30;;;;;;;8.63;6.03;;;;;;;;;;5090087;28;20036;-75
2022/01/01 11:12:02;;;;;;;9.77;6.97;;;;;;;;;;5091000;28;20083;-76
2022/01/01 11:14:29;;;;;;;11.30;7.07;;;;;;;;;;5089797;28;20051;-74
2022/01/01 11:16:55;;;;;;;10.77;6.80;;;;;;;;;;5082596;28;20387;-75
2022/01/01 11:19:24;;;;;;;10.52;6.15;;;;;;;;;;5090337;28;20044;-76
2022/01/01 11:21:50;;;;;;;9.57;6.50;;;;;;;;;;5090398;28;20098;-75
2022/01/01 11:24:16;;;;;;;9.73;6.50;;;;;;;;;;5089041;28;20290;-76
2022/01/01 11:26:42;;;;;;;9.95;6.43;;;;;;;;;;5090173;28;20496;-76
2022/01/01 11:29:08;;;;;;;10.00;6.25;;;;;;;;;;5090241;28;20048;-76
2022/01/01 11:31:36;;;;;;;10.55;6.40;;;;;;;;;;5090277;28;20052;-76
2022/01/01 11:34:02;;;;;;;9.48;6.00;;;;;;;;;;5090142;28;20094;-74
2022/01/01 11:36:31;;;;;;;9.60;6.60;;;;;;;;;;5090235;28;20036;-77
2022/01/01 11:38:59;;;;;;;8.82;5.97;;;;;;;;;;5090188;28;20063;-77
2022/01/01 11:41:37;;;;;;;9.23;6.55;;;;;;;;;;5088190;28;20040;-77
2022/01/01 11:44:03;;;;;;;8.93;5.82;;;;;;;;;;5089063;28;20082;-75
2022/01/01 11:46:30;;;;;;;12.50;6.72;;;;;;;;;;5089962;28;20044;-76
2022/01/01 11:48:57;;;;;;;8.85;5.97;;;;;;;;;;5089905;28;20443;-77
2022/01/01 11:51:26;;;;;;;11.30;6.30;;;;;;;;;;5089803;28;20486;-76
2022/01/01 11:54:14;;;;;;;9.83;5.60;;;;;;;;;;5086514;28;20059;-75
2022/01/01 11:56:52;;;;;;;8.98;5.55;;;;;;;;;;5070548;28;20041;-77
2022/01/01 11:59:24;;;;;;;9.18;5.70;;;;;;;;;;5070560;28;20517;-77
2022/01/01 12:02:02;;;;;;;8.43;5.43;;;;;;;;;;5069998;28;20137;-76
2022/01/01 12:04:37;;;;;;;9.02;5.50;;;;;;;;;;5069989;28;20048;-77
2022/01/01 12:07:12;;;;;;;8.73;5.85;;;;;;;;;;5068899;28;20186;-74
2022/01/01 12:09:47;;;;;;;8.27;5.35;;;;;;;;;;5068440;28;20499;-75
2022/01/01 12:12:14;;;;;;;8.23;5.18;;;;;;;;;;5100159;28;20052;-75
2022/01/01 12:14:41;;;;;;;8.35;5.55;;;;;;;;;;5089474;28;20414;-75
2022/01/01 12:17:07;;;;;;;9.15;5.63;;;;;;;;;;5089774;28;20047;-76
2022/01/01 12:19:37;;;;;;;8.25;5.13;;;;;;;;;;5089374;28;20413;-75
2022/01/01 12:22:04;;;;;;;10.73;6.22;;;;;;;;;;5088732;28;20055;-75
2022/01/01 12:24:34;;;;;;;10.35;5.43;;;;;;;;;;5089307;28;20059;-76
2022/01/01 12:27:00;;;;;;;;;;;;;;;;;;5089626;28;20134;-77
2022/01/01 12:29:26;;;;;;;9.15;5.70;;;;;;;;;;5089965;28;19919;-76
2022/01/01 12:31:59;;;;;;;8.35;5.78;;;;;;;;;;5090022;28;20047;-76
2022/01/01 12:34:25;;;;;;;16.73;5.60;;;;;;;;;;5089608;28;20398;-76
2022/01/01 12:36:55;;;;;;;7.88;5.07;;;;;;;;;;5089416;28;20533;-76
2022/01/01 12:39:22;;;;;;;14.68;5.88;;;;;;;;;;5090167;28;20048;-75
2022/01/01 12:41:48;;;;;;;11.20;5.43;;;;;;;;;;5088327;28;20040;-75
2022/01/01 12:44:14;;;;;;;12.25;5.18;;;;;;;;;;5088312;28;20046;-74
2022/01/01 12:46:44;;;;;;;11.25;5.40;;;;;;;;;;5087544;28;20032;-74
2022/01/01 12:49:10;;;;;;;8.73;5.57;;;;;;;;;;5088170;28;20418;-74
2022/01/01 12:51:39;;;;;;;11.40;5.03;;;;;;;;;;5086773;28;20116;-74
2022/01/01 12:54:06;;;;;;;;;;;;;;;;;;5085354;28;20036;-73
2022/01/01 12:56:32;;;;;;;9.80;4.90;;;;;;;;;;5088342;28;19924;-72
2022/01/01 12:58:59;;;;;;;9.02;5.13;;;;;;;;;;5088002;28;20048;-74
2022/01/01 13:01:29;;;;;;;9.90;5.65;;;;;;;;;;5088121;28;20127;-74
2022/01/01 13:03:55;;;;;;;9.45;5.32;;;;;;;;;;5087120;28;20088;-73
2022/01/01 13:06:22;;;;;;;8.23;4.60;;;;;;;;;;5067507;28;20051;-73
2022/01/01 13:08:48;;;;;;;7.32;5.47;;;;;;;;;;5087807;28;20039;-73
2022/01/01 13:11:15;;;;;;;8.60;5.55;;;;;;;;;;5087708;28;20043;-73
2022/01/01 13:13:42;;;;;;;8.82;5.28;;;;;;;;;;5088076;28;20040;-74
2022/01/01 13:16:08;;;;;;;9.27;4.93;;;;;;;;;;5069205;28;20520;-74
2022/01/01 13:18:34;;;;;;;9.43;5.60;;;;;;;;;;5087996;28;20036;-74
2022/01/01 13:21:00;;;;;;;9.68;5.60;;;;;;;;;;5087402;28;20105;-74
2022/01/01 13:23:26;;;;;;;7.78;4.90;;;;;;;;;;5087982;28;20044;-74
2022/01/01 13:25:53;;;;;;;7.90;5.60;;;;;;;;;;5083861;28;20090;-73
2022/01/01 13:28:22;;;;;;;8.10;5.05;;;;;;;;;;5087992;28;20040;-73
2022/01/01 13:30:48;;;;;;;;;;;;;;;;;;5087940;28;20048;-73
2022/01/01 13:33:15;;;;;;;7.82;5.13;;;;;;;;;;5087877;28;20423;-74
2022/01/01 13:35:47;;;;;;;10.75;4.95;;;;;;;;;;5086450;28;20047;-72
2022/01/01 13:38:14;;;;;;;8.60;4.60;;;;;;;;;;5085963;28;20039;-72
2022/01/01 13:40:43;;;;;;;9.70;4.25;;;;;;;;;;5087236;28;20035;-73
2022/01/01 13:43:10;;;;;;;6.70;4.55;;;;;;;;;;5087544;28;20456;-73
2022/01/01 13:45:36;;;;;;;9.57;5.10;;;;;;;;;;5087651;28;20036;-74
2022/01/01 13:48:06;;;;;;;7.85;4.63;;;;;;;;;;5088775;28;20055;-73
2022/01/01 13:50:38;;;;;;;8.38;4.60;;;;;;;;;;5089443;28;20044;-73
2022/01/01 13:53:06;;;;;;;9.20;5.18;;;;;;;;;;5090675;28;20097;-74
2022/01/01 13:55:33;;;;;;;9.02;4.72;;;;;;;;;;5090755;28;20048;-73
2022/01/01 13:58:02;;;;;;;8.80;5.03;;;;;;;;;;5091436;28;20044;-73
2022/01/01 14:00:29;;;;;;;7.90;4.50;;;;;;;;;;5088467;28;20447;-73
2022/01/01 14:02:55;;;;;;;9.52;4.50;;;;;;;;;;5091179;28;20127;-73
2022/01/01 14:05:22;;;;;;;6.07;4.13;;;;;;;;;;5090685;28;20127;-74
2022/01/01 14:07:49;;;;;;;8.77;4.82;;;;;;;;;;5089809;28;20440;-73
2022/01/01 14:10:16;;;;;;;9.05;4.97;;;;;;;;;;5090798;28;20052;-73
2022/01/01 14:12:43;;;;;;;6.80;4.53;;;;;;;;;;5090144;28;20127;-73
2022/01/01 14:15:18;;;;;;;7.57;4.68;;;;;;;;;;5087619;28;20097;-72
2022/01/01 14:17:54;;;;;;;8.27;4.50;;;;;;;;;;5089703;28;20036;-73
2022/01/01 14:20:21;;;;;;;10.98;4.20;;;;;;;;;;5088732;28;20046;-74
2022/01/01 14:22:47;;;;;;;7.65;3.92;;;;;;;;;;5090300;28;20040;-77
2022/01/01 14:25:14;;;;;;;9.43;4.70;;;;;;;;;;5090785;28;20046;-73
2022/01/01 14:27:40;;;;;;;9.50;4.05;;;;;;;;;;5090314;28;20501;-74
2022/01/01 14:30:07;;;;;;;9.38;3.83;;;;;;;;;;5089755;28;20494;-74
2022/01/01 14:32:33;;;;;;;6.75;4.10;;;;;;;;;;5089529;28;20413;-74
2022/01/01 14:35:00;;;;;;;7.78;4.55;;;;;;;;;;5087428;28;20051;-74
2022/01/01 14:37:26;;;;;;;8.15;4.22;;;;;;;;;;5089763;28;20410;-75
2022/01/01 14:39:52;;;;;;;8.95;3.70;;;;;;;;;;5089508;28;20409;-77
2022/01/01 14:42:18;;;;;;;7.45;4.50;;;;;;;;;;5074197;28;20063;-76
2022/01/01 14:44:44;;;;;;;6.60;3.78;;;;;;;;;;5089020;28;20040;-75